Time;durP1;ratioP1;P1;durP2;ratioP2;P2;SDS_P1;SDS_P2;PMS_P1;PMS_P2;Temp;Humidity;BMP_temperature;BMP_pressure;BME280_temperature;BME280_humidity;BME280_pressure;Samples;Min_cycle;Max_cycle;Signal;HPM_P1;HPM_P2
2022/04/21 06:53:42;;;;;;;;;12.00;9.25;;;;;13.22;37.38;100434.56;5142907;27;45374;-75
2022/04/21 06:56:16;;;;;;;;;17.50;12.50;;;;;13.54;37.63;100443.78;5094214;27;45353;-79
2022/04/21 06:58:42;;;;;;;;;9.00;8.75;;;;;13.76;37.53;100428.53;5113619;27;45490;-75
2022/04/21 07:01:08;;;;;;;;;13.25;13.25;;;;;14.11;36.45;100437.59;5100319;27;45493;-76
2022/04/21 07:03:36;;;;;;;;;12.50;12.50;;;;;14.24;36.40;100431.25;5074087;27;46398;-82
2022/04/21 07:06:05;;;;;;;;;16.25;11.50;;;;;14.27;36.25;100414.50;5104323;27;45441;-80
2022/04/21 07:08:31;;;;;;;;;10.75;9.75;;;;;14.45;36.11;100429.09;5094237;27;45479;-79
2022/04/21 07:10:56;;;;;;;;;11.00;10.75;;;;;14.51;35.83;100427.22;5092404;27;45489;-73
2022/04/21 07:13:23;;;;;;;;;12.00;11.75;;;;;14.75;35.40;100430.31;5092652;27;46546;-76
2022/04/21 07:15:48;;;;;;;;;13.25;10.25;;;;;14.88;35.65;100429.16;5093942;27;45451;-77
2022/04/21 07:18:14;;;;;;;;;10.75;10.75;;;;;14.98;35.63;100425.44;5074959;27;45369;-79
2022/04/21 07:20:40;;;;;;;;;16.50;12.00;;;;;15.09;35.18;100422.56;5087976;27;45409;-79
2022/04/21 07:23:06;;;;;;;;;15.00;12.00;;;;;14.97;34.72;100386.78;5086943;27;46082;-78
2022/04/21 07:25:32;;;;;;;;;12.50;12.50;;;;;15.29;34.62;100426.53;5077707;27;45425;-69
2022/04/21 07:27:57;;;;;;;;;15.50;10.75;;;;;15.42;34.62;100425.34;5083471;27;45416;-67
2022/04/21 07:30:23;;;;;;;;;11.25;10.25;;;;;15.56;34.26;100409.19;5095890;27;45422;-70
2022/04/21 07:32:49;;;;;;;;;8.00;8.00;;;;;15.77;34.17;100407.84;5093091;27;45337;-67
2022/04/21 07:35:16;;;;;;;;;10.75;8.50;;;;;16.03;34.52;100415.09;5090540;27;45362;-75
2022/04/21 07:37:42;;;;;;;;;10.50;10.50;;;;;16.11;33.85;100407.84;5088592;27;45350;-76
2022/04/21 07:40:08;;;;;;;;;17.25;15.25;;;;;16.09;33.40;100410.53;5083325;27;45328;-81
2022/04/21 07:42:33;;;;;;;;;17.25;10.50;;;;;15.97;33.74;100402.03;5102212;27;45306;-79
2022/04/21 07:45:03;;;;;;;;;17.25;13.00;;;;;15.95;33.32;100409.16;5112378;27;45420;-79
2022/04/21 07:47:29;;;;;;;;;11.50;11.50;;;;;15.94;33.80;100410.91;5082154;27;45414;-75
2022/04/21 07:49:56;;;;;;;;;15.50;14.75;;;;;15.73;33.74;100401.78;5099752;27;45835;-68
2022/04/21 07:55:12;;;;;;;;;13.00;11.75;;;;;15.72;34.39;100394.75;5078396;27;45625;-79
2022/04/21 07:57:38;;;;;;;;;18.00;14.50;;;;;15.90;34.02;100419.84;5071978;27;45623;-81
2022/04/21 08:00:05;;;;;;;;;16.50;13.50;;;;;15.96;34.22;100416.16;5070085;27;45449;-77
2022/04/21 08:02:31;;;;;;;;;11.00;11.00;;;;;15.94;34.07;100396.84;5053067;27;47127;-76
2022/04/21 08:04:57;;;;;;;;;16.25;13.00;;;;;16.15;34.20;100424.50;5059382;28;44820;-69
2022/04/21 08:07:26;;;;;;;;;13.25;13.25;;;;;15.96;33.99;100382.69;5059554;28;45504;-67
2022/04/21 08:09:52;;;;;;;;;17.25;13.50;;;;;16.09;34.21;100392.03;5053640;28;45380;-76
2022/04/21 08:12:17;;;;;;;;;19.00;15.75;;;;;16.15;33.80;100401.56;5056066;28;46135;-73
2022/04/21 08:14:44;;;;;;;;;14.50;12.50;;;;;16.21;33.60;100409.34;5055175;28;45528;-73
2022/04/21 08:17:09;;;;;;;;;12.50;11.50;;;;;16.20;33.63;100412.03;5056290;28;45369;-72
2022/04/21 08:19:35;;;;;;;;;11.00;10.00;;;;;16.24;33.69;100413.69;5055343;27;45404;-80
2022/04/21 08:22:01;;;;;;;;;15.00;13.50;;;;;16.33;33.32;100418.72;5036808;28;46333;-79
2022/04/21 08:32:43;;;;;;;;;20.00;15.00;;;;;16.40;33.51;100417.66;5057772;28;45830;-74
2022/04/21 08:35:13;;;;;;;;;14.50;13.75;;;;;16.39;33.64;100405.34;5054874;28;45443;-79
2022/04/21 08:37:39;;;;;;;;;18.25;16.00;;;;;16.40;33.79;100419.44;5054642;28;46066;-69
2022/04/21 08:40:06;;;;;;;;;17.00;15.50;;;;;16.29;33.55;100411.78;5054851;28;45761;-71
2022/04/21 08:42:36;;;;;;;;;14.25;13.75;;;;;16.15;33.52;100404.22;5055016;28;46190;-76
2022/04/21 08:45:03;;;;;;;;;11.00;10.75;;;;;16.05;33.76;100398.31;5054781;28;45596;-69
2022/04/21 08:47:29;;;;;;;;;16.25;13.50;;;;;16.16;33.98;100410.38;5056928;28;45501;-78
2022/04/21 08:50:12;;;;;;;;;13.25;11.75;;;;;16.18;34.23;100405.91;5054138;28;45331;-68
2022/04/21 08:52:39;;;;;;;;;15.25;15.25;;;;;16.24;34.24;100406.63;5054746;28;45708;-77
2022/04/21 08:55:05;;;;;;;;;16.25;13.75;;;;;16.20;34.16;100402.31;5056916;28;45493;-75
2022/04/21 08:57:35;;;;;;;;;14.25;14.25;;;;;16.34;33.49;100420.44;5056442;28;45492;-70
2022/04/21 09:00:02;;;;;;;;;16.00;10.75;;;;;16.32;33.37;100417.88;5058305;28;45546;-80
2022/04/21 09:02:38;;;;;;;;;13.00;10.50;;;;;16.37;33.43;100415.06;5064301;28;45994;-76
2022/04/21 09:05:04;;;;;;;;;13.50;12.25;;;;;16.47;34.39;100418.38;5059607;28;45633;-76
2022/04/21 09:07:30;;;;;;;;;20.50;16.25;;;;;16.46;33.52;100406.91;5059010;28;45342;-82
2022/04/21 09:10:15;;;;;;;;;16.25;14.25;;;;;16.61;34.69;100423.25;5059123;28;45619;-79
2022/04/21 09:12:47;;;;;;;;;16.00;13.50;;;;;16.73;34.35;100415.00;5065138;27;45608;-79
2022/04/21 09:15:15;;;;;;;;;15.50;13.25;;;;;16.77;34.47;100406.03;5057900;28;45518;-74
2022/04/21 09:17:49;;;;;;;;;17.25;14.50;;;;;16.82;33.82;100392.72;5056443;27;45443;-72
2022/04/21 09:20:18;;;;;;;;;15.33;13.67;;;;;16.85;33.99;100398.78;5071022;28;46730;-71
2022/04/21 09:22:55;;;;;;;;;14.25;12.50;;;;;17.02;33.68;100405.38;5063521;28;45458;-73
2022/04/21 09:25:25;;;;;;;;;12.33;11.00;;;;;17.09;33.76;100393.69;5055898;28;45401;-76
2022/04/21 09:27:52;;;;;;;;;12.33;10.33;;;;;17.10;33.70;100367.16;5063112;28;45384;-75
2022/04/21 09:30:18;;;;;;;;;14.00;11.25;;;;;17.44;36.25;100389.94;5060880;28;45519;-71
2022/04/21 09:32:58;;;;;;;;;15.00;12.67;;;;;17.52;33.52;100360.56;5060111;28;45882;-72
2022/04/21 09:35:29;;;;;;;;;19.33;12.67;;;;;17.69;32.67;100371.47;5038814;28;45598;-76
2022/04/21 09:37:58;;;;;;;;;15.75;15.50;;;;;17.78;32.28;100395.00;5056762;28;45400;-78
2022/04/21 09:40:26;;;;;;;;;17.00;17.00;;;;;17.49;31.90;100368.63;5063714;28;45864;-73
2022/04/21 09:42:55;;;;;;;;;15.00;13.00;;;;;17.64;35.38;100391.09;5052231;28;46253;-68
2022/04/21 09:48:26;;;;;;;;;16.25;13.75;;;;;17.69;32.06;100378.56;5055945;27;45937;-68
2022/04/21 09:50:56;;;;;;;;;16.67;13.67;;;;;17.78;32.56;100388.84;5055439;28;45424;-68
2022/04/21 09:53:23;;;;;;;;;15.00;12.67;;;;;17.82;32.64;100379.03;5057089;28;46262;-69
2022/04/21 09:56:06;;;;;;;;;15.67;14.33;;;;;17.88;32.16;100381.47;5060493;28;45622;-68
2022/04/21 09:58:36;;;;;;;;;14.33;12.00;;;;;17.95;32.42;100380.34;5049937;28;45318;-71
2022/04/21 10:01:03;;;;;;;;;14.67;12.67;;;;;17.60;32.92;100314.38;5055815;28;45378;-73
2022/04/21 10:03:33;;;;;;;;;19.00;16.00;;;;;17.67;31.03;100308.88;5056346;28;46394;-69
2022/04/21 10:05:59;;;;;;;;;17.67;13.67;;;;;17.83;30.85;100328.66;5056023;28;45575;-70
2022/04/21 10:08:25;;;;;;;;;18.33;14.67;;;;;18.13;30.81;100366.47;5055064;28;45429;-70
2022/04/21 10:10:52;;;;;;;;;14.00;14.00;;;;;18.19;30.59;100363.59;5041744;28;45482;-69
2022/04/21 10:13:18;;;;;;;;;16.33;15.33;;;;;18.24;30.50;100358.13;5055685;28;46260;-75
2022/04/21 10:15:44;;;;;;;;;13.00;11.00;;;;;18.30;30.61;100357.94;5063180;28;45503;-74
2022/04/21 10:18:13;;;;;;;;;18.67;16.67;;;;;18.25;30.01;100335.13;5055545;28;46181;-74
2022/04/21 10:20:40;;;;;;;;;18.33;14.33;;;;;18.23;30.07;100322.81;5059542;27;45365;-76
2022/04/21 10:23:10;;;;;;;;;18.33;15.33;;;;;18.48;29.29;100352.84;5055697;28;46080;-75
2022/04/21 10:25:40;;;;;;;;;15.67;15.67;;;;;18.50;29.14;100343.94;5056280;28;45473;-72
2022/04/21 10:28:36;;;;;;;;;15.67;13.67;;;;;18.50;29.16;100343.94;5036720;28;45461;-74
2022/04/21 10:31:29;;;;;;;;;15.67;13.00;;;;;18.55;29.23;100336.66;5052222;28;45495;-71
2022/04/21 10:34:05;;;;;;;;;17.33;13.67;;;;;18.54;29.55;100334.94;5050683;28;45410;-74
2022/04/21 10:36:42;;;;;;;;;14.67;10.00;;;;;18.39;30.22;100293.97;5059980;28;45374;-75
2022/04/21 10:39:16;;;;;;;;;26.00;23.75;;;;;18.72;30.27;100330.75;5057918;28;45474;-75
2022/04/21 10:41:43;;;;;;;;;55.75;42.00;;;;;18.82;29.85;100321.53;5053429;28;45350;-74
2022/04/21 10:44:27;;;;;;;;;53.00;41.00;;;;;18.87;29.89;100325.81;5056232;28;46744;-78
2022/04/21 10:47:30;;;;;;;;;26.00;21.00;;;;;18.96;28.76;100320.09;5061312;28;45445;-75
2022/04/21 10:50:10;;;;;;;;;19.67;17.33;;;;;18.95;28.73;100315.75;5034548;28;45319;-72
2022/04/21 10:57:51;;;;;;;;;21.67;15.00;;;;;19.32;27.78;100316.94;5039526;28;45493;-73
2022/04/21 11:00:24;;;;;;;;;18.67;16.67;;;;;19.40;27.49;100320.13;5042316;28;45442;-72
2022/04/21 11:03:07;;;;;;;;;15.00;15.00;;;;;19.47;27.54;100314.50;5047435;27;45500;-73
2022/04/21 11:05:36;;;;;;;;;15.67;15.00;;;;;19.32;27.48;100267.34;5066094;28;45405;-72
2022/04/21 11:08:11;;;;;;;;;19.00;14.67;;;;;19.58;27.75;100300.78;5049762;28;45346;-71
2022/04/21 11:10:37;;;;;;;;;13.00;11.67;;;;;19.58;27.76;100303.44;5057235;28;45460;-72
2022/04/21 11:13:04;;;;;;;;;16.33;14.67;;;;;19.70;27.36;100307.41;5057337;28;45351;-71
2022/04/21 11:15:34;;;;;;;;;15.33;14.33;;;;;19.78;27.69;100299.94;5059970;28;45415;-70
2022/04/21 11:18:15;;;;;;;;;17.33;12.67;;;;;19.81;28.21;100273.25;5057043;28;45819;-70
2022/04/21 11:20:44;;;;;;;;;15.00;13.00;;;;;20.03;27.19;100275.81;5072601;28;45491;-73
2022/04/21 11:23:23;;;;;;;;;13.33;12.67;;;;;20.20;26.74;100275.06;5056279;28;45304;-72
2022/04/21 11:25:50;;;;;;;;;15.33;14.00;;;;;20.37;26.74;100273.44;5059637;28;45987;-73
2022/04/21 11:28:24;;;;;;;;;13.67;12.67;;;;;20.60;27.73;100269.75;5055956;28;45556;-69
2022/04/21 11:30:59;;;;;;;;;14.33;12.33;;;;;20.43;27.23;100212.84;5057958;28;45542;-74
2022/04/21 11:33:26;;;;;;;;;14.33;11.00;;;;;20.99;26.50;100266.97;5056747;28;45401;-72
2022/04/21 11:36:09;;;;;;;;;14.00;12.33;;;;;21.18;25.76;100270.44;5058120;27;45489;-72
2022/04/21 11:38:39;;;;;;;;;13.33;12.67;;;;;21.12;25.65;100245.94;5067338;27;45508;-71
2022/04/21 11:41:07;;;;;;;;;12.33;12.33;;;;;21.38;25.31;100268.63;5059752;28;45436;-72
2022/04/21 11:43:35;;;;;;;;;15.00;12.67;;;;;21.34;24.40;100240.41;5058160;28;45347;-71
2022/04/21 11:46:05;;;;;;;;;17.67;16.33;;;;;21.29;23.54;100250.44;5059070;28;45648;-74
2022/04/21 11:48:33;;;;;;;;;12.33;12.33;;;;;21.26;24.07;100258.53;5059438;28;45504;-72
2022/04/21 11:51:02;;;;;;;;;16.00;13.67;;;;;21.30;23.92;100260.13;5059359;28;45553;-72
2022/04/21 11:53:30;;;;;;;;;13.33;12.67;;;;;21.23;23.45;100240.91;5059661;28;45353;-72
2022/04/21 11:55:55;;;;;;;;;14.67;14.33;;;;;21.43;23.73;100255.94;5058829;28;46352;-72
2022/04/21 11:58:29;;;;;;;;;15.33;15.00;;;;;21.38;22.93;100239.31;5059236;28;45343;-68
2022/04/21 12:06:46;;;;;;;;;64.00;49.50;;;;;21.32;23.21;100226.28;5059506;28;45513;-68
2022/04/21 12:09:20;;;;;;;;;54.50;43.00;;;;;21.37;23.93;100227.78;5042091;28;45524;-70
2022/04/21 12:12:00;;;;;;;;;23.00;18.67;;;;;21.57;24.11;100244.59;5044366;28;45651;-70
2022/04/21 12:14:27;;;;;;;;;18.67;16.33;;;;;21.62;23.67;100229.22;5061457;28;45331;-73
2022/04/21 12:17:00;;;;;;;;;15.00;13.00;;;;;21.62;23.91;100233.66;5059752;28;45545;-72
2022/04/21 12:19:35;;;;;;;;;13.67;13.67;;;;;21.54;23.95;100216.28;5058882;28;45591;-73
2022/04/21 12:22:16;;;;;;;;;17.67;17.67;;;;;21.85;24.77;100233.31;5058456;28;45359;-71
2022/04/21 12:24:43;;;;;;;;;17.33;14.33;;;;;21.94;24.19;100240.00;5059600;28;45359;-69
2022/04/21 12:27:12;;;;;;;;;14.33;14.00;;;;;22.06;24.19;100233.13;5059343;28;45541;-68
2022/04/21 12:29:50;;;;;;;;;13.00;10.00;;;;;22.22;24.40;100229.59;5060755;28;45502;-68
2022/04/21 12:32:25;;;;;;;;;10.67;10.00;;;;;22.36;24.26;100228.84;5061490;28;45245;-69
2022/04/21 12:34:51;;;;;;;;;9.67;9.00;;;;;22.57;24.55;100218.78;5042482;28;45185;-69
2022/04/21 12:37:25;;;;;;;;;8.67;8.67;;;;;22.59;23.70;100192.00;5042285;28;46300;-68
2022/04/21 12:39:52;;;;;;;;;16.33;10.67;;;;;22.57;23.84;100192.09;5043336;28;45225;-68
2022/04/21 12:42:19;;;;;;;;;11.33;11.00;;;;;22.71;23.62;100225.13;5038997;28;45479;-73
2022/04/21 12:44:44;;;;;;;;;11.00;11.00;;;;;22.70;23.80;100212.75;5039054;28;45368;-68
2022/04/21 12:47:15;;;;;;;;;9.67;9.00;;;;;22.77;24.80;100220.31;5039063;28;45396;-73
2022/04/21 12:50:01;;;;;;;;;10.67;10.00;;;;;22.96;25.01;100205.91;5039537;28;45325;-72
2022/04/21 12:52:35;;;;;;;;;6.00;4.33;;;;;23.19;24.76;100207.28;5036963;28;45378;-73
2022/04/21 12:55:06;;;;;;;;;10.67;8.00;;;;;23.34;24.20;100208.19;5090417;27;45401;-71
2022/04/21 12:57:39;;;;;;;;;9.67;9.67;;;;;23.45;24.07;100213.75;5079061;27;46340;-69
2022/04/21 13:00:10;;;;;;;;;12.33;9.33;;;;;23.41;23.70;100204.19;5078558;28;45310;-74
2022/04/21 13:02:37;;;;;;;;;7.33;7.33;;;;;23.17;23.55;100185.13;5077435;27;45615;-72
2022/04/21 13:05:04;;;;;;;;;8.00;8.00;;;;;23.08;23.80;100186.53;5077485;27;45486;-72
2022/04/21 13:07:29;;;;;;;;;10.67;9.00;;;;;22.92;24.16;100169.66;5078554;27;45527;-72
2022/04/21 13:09:55;;;;;;;;;12.00;11.00;;;;;22.92;24.35;100181.22;5078720;27;45341;-70
2022/04/21 13:12:21;;;;;;;;;12.67;9.00;;;;;23.00;24.74;100184.31;5077109;27;45490;-71
2022/04/21 13:14:47;;;;;;;;;8.00;8.00;;;;;23.20;25.07;100182.28;5078693;27;45326;-70
2022/04/21 13:17:13;;;;;;;;;13.00;11.33;;;;;23.29;24.85;100161.22;5078270;28;46175;-70
2022/04/21 13:19:38;;;;;;;;;12.00;10.00;;;;;23.40;24.82;100165.06;5087256;27;45403;-69
2022/04/21 13:22:04;;;;;;;;;13.67;13.67;;;;;23.39;25.12;100152.66;5081355;27;45416;-72
2022/04/21 13:24:31;;;;;;;;;10.67;10.67;;;;;23.50;25.06;100160.88;5078841;27;45357;-70
2022/04/21 13:26:59;;;;;;;;;12.67;11.00;;;;;23.41;24.90;100140.91;5078203;27;46494;-70
2022/04/21 13:29:27;;;;;;;;;12.00;11.00;;;;;23.41;25.38;100134.72;5078350;27;45315;-69
2022/04/21 13:34:37;;;;;;;;;10.33;10.33;;;;;23.75;25.01;100176.28;5078912;27;45299;-70
2022/04/21 13:37:04;;;;;;;;;15.33;13.00;;;;;23.53;24.99;100179.38;5078666;28;45393;-72
2022/04/21 13:39:38;;;;;;;;;10.33;10.33;;;;;23.12;25.29;100141.81;5082625;27;45253;-73
2022/04/21 13:42:04;;;;;;;;;14.67;12.33;;;;;23.00;26.69;100135.41;5078797;27;45377;-80
2022/04/21 13:44:30;;;;;;;;;12.67;12.67;;;;;23.16;26.13;100154.00;5078800;27;45814;-70
2022/04/21 13:46:56;;;;;;;;;12.00;10.00;;;;;23.20;26.32;100164.44;5084890;27;45428;-71
2022/04/21 13:49:22;;;;;;;;;13.33;11.33;;;;;23.13;26.13;100154.22;5092728;27;45701;-71
2022/04/21 13:51:48;;;;;;;;;12.33;12.00;;;;;23.13;25.99;100160.41;5067679;27;45476;-70
2022/04/21 13:54:15;;;;;;;;;10.33;10.33;;;;;23.15;26.95;100154.97;5052660;28;45569;-73
2022/04/21 13:56:41;;;;;;;;;11.00;9.00;;;;;23.22;26.15;100151.00;5035812;28;46759;-71
2022/04/21 13:59:10;;;;;;;;;10.33;9.33;;;;;23.29;26.07;100153.19;5056100;28;45866;-72
2022/04/21 14:01:37;;;;;;;;;11.00;9.33;;;;;23.34;26.00;100142.22;5035932;28;45429;-71
2022/04/21 14:04:02;;;;;;;;;11.33;10.33;;;;;23.35;25.93;100140.41;5055188;28;45565;-69
2022/04/21 14:06:28;;;;;;;;;9.00;8.00;;;;;23.40;27.03;100144.53;5054925;28;46010;-70
2022/04/21 14:08:54;;;;;;;;;10.00;10.00;;;;;23.19;26.22;100100.44;5054165;28;45275;-72
2022/04/21 14:11:20;;;;;;;;;11.33;11.33;;;;;23.48;25.91;100141.41;5056807;28;45502;-70
2022/04/21 14:13:50;;;;;;;;;5.67;5.00;;;;;23.36;26.34;100121.63;5054159;28;45532;-72
2022/04/21 14:16:16;;;;;;;;;9.00;7.00;;;;;23.42;27.36;100104.34;5055940;28;45480;-71
2022/04/21 14:18:42;;;;;;;;;6.00;6.00;;;;;23.55;27.08;100110.66;5054082;28;45534;-68
2022/04/21 14:21:11;;;;;;;;;9.33;7.33;;;;;23.80;26.56;100126.09;5054514;28;45444;-69
2022/04/21 14:23:37;;;;;;;;;8.33;7.67;;;;;23.73;26.01;100122.03;5054294;28;45874;-71
2022/04/21 14:26:09;;;;;;;;;8.67;8.67;;;;;23.63;25.79;100129.78;5055092;28;46461;-70
2022/04/21 14:28:39;;;;;;;;;12.00;9.00;;;;;23.03;26.61;100063.94;5038992;28;45472;-71
2022/04/21 14:31:10;;;;;;;;;9.67;9.67;;;;;23.29;27.01;100121.13;5049623;28;45732;-70
2022/04/21 14:33:39;;;;;;;;;7.00;7.00;;;;;23.13;27.16;100109.66;5060346;28;45405;-72
2022/04/21 14:36:09;;;;;;;;;8.67;7.33;;;;;23.15;27.36;100121.09;5045980;28;45970;-69
2022/04/21 14:44:04;;;;;;;;;9.00;7.33;;;;;22.86;27.84;100113.00;5053788;28;45540;-70
2022/04/21 14:46:43;;;;;;;;;9.33;9.00;;;;;22.75;27.75;100120.75;5068759;28;46467;-69
2022/04/21 14:49:09;;;;;;;;;6.67;5.67;;;;;22.71;28.04;100113.03;5050884;28;45603;-70
2022/04/21 14:51:36;;;;;;;;;9.00;8.67;;;;;22.50;28.15;100075.97;5068630;27;45759;-70
2022/04/21 14:54:02;;;;;;;;;5.00;5.00;;;;;22.52;28.31;100076.75;5057871;27;45311;-71
2022/04/21 14:56:28;;;;;;;;;7.00;7.00;;;;;22.68;28.38;100116.72;5064308;28;46126;-71
2022/04/21 14:58:54;;;;;;;;;6.00;6.00;;;;;22.78;29.67;100101.91;5054351;28;45584;-70
2022/04/21 15:01:20;;;;;;;;;6.33;6.00;;;;;22.88;28.59;100094.22;5038037;28;45438;-71
2022/04/21 15:03:45;;;;;;;;;5.00;5.00;;;;;23.05;28.56;100106.59;5034309;28;45691;-68
2022/04/21 15:06:11;;;;;;;;;9.33;8.33;;;;;23.08;28.17;100098.38;5059938;28;46142;-74
2022/04/21 15:08:38;;;;;;;;;5.33;5.33;;;;;22.95;28.09;100074.22;5057704;28;45337;-72
2022/04/21 15:11:05;;;;;;;;;5.00;5.00;;;;;23.00;28.38;100082.84;5045542;28;45551;-71
2022/04/21 15:13:32;;;;;;;;;7.33;7.33;;;;;23.10;28.25;100096.50;5044727;28;45465;-70
2022/04/21 15:15:57;;;;;;;;;6.00;6.00;;;;;22.78;28.39;100059.19;5064918;28;45916;-70
2022/04/21 15:18:23;;;;;;;;;8.33;7.67;;;;;22.90;28.50;100070.06;5044461;27;45575;-71
2022/04/21 15:20:49;;;;;;;;;8.00;7.00;;;;;22.78;28.59;100061.88;5062478;28;45661;-68
2022/04/21 15:23:14;;;;;;;;;6.33;6.33;;;;;22.63;28.57;100057.44;5062226;28;45476;-69
2022/04/21 15:25:40;;;;;;;;;6.50;5.50;;;;;22.70;28.98;100088.16;5064644;28;46156;-70
2022/04/21 15:28:08;;;;;;;;;7.00;7.00;;;;;22.56;28.92;100077.41;5049741;28;45520;-70
2022/04/21 15:30:36;;;;;;;;;5.00;5.00;;;;;22.46;28.90;100073.56;5057715;28;45868;-69
2022/04/21 15:33:07;;;;;;;;;4.33;4.33;;;;;22.59;29.47;100082.56;5064297;28;45422;-70
2022/04/21 15:35:34;;;;;;;;;5.33;5.33;;;;;22.70;29.36;100076.63;5059979;28;46119;-69
2022/04/21 15:37:59;;;;;;;;;6.67;6.00;;;;;22.69;29.37;100062.41;5061820;28;45429;-69
2022/04/21 15:40:25;;;;;;;;;5.33;5.00;;;;;22.73;29.65;100063.06;5058200;28;45426;-70
2022/04/21 15:42:51;;;;;;;;;5.33;5.33;;;;;22.86;29.26;100064.06;5060927;28;45462;-70
2022/04/21 15:45:17;;;;;;;;;6.33;4.00;;;;;22.88;29.43;100072.00;5062831;28;46068;-71
2022/04/21 15:47:46;;;;;;;;;5.00;5.00;;;;;22.76;29.39;100042.41;5055572;28;45401;-69
2022/04/21 15:50:12;;;;;;;;;6.67;6.67;;;;;22.89;29.68;100058.53;5039005;28;45394;-70
2022/04/21 15:52:39;;;;;;;;;4.00;4.00;;;;;22.95;29.59;100055.53;5060903;27;45619;-69
2022/04/21 16:00:36;;;;;;;;;5.00;5.00;;;;;22.76;29.65;100047.75;5057017;28;45458;-68
2022/04/21 16:03:01;;;;;;;;;5.33;5.33;;;;;22.76;29.81;100052.25;5061199;27;45438;-70
2022/04/21 16:05:30;;;;;;;;;4.00;4.00;;;;;22.76;30.12;100042.41;5066121;28;46545;-69
2022/04/21 16:07:56;;;;;;;;;3.33;3.33;;;;;22.80;29.97;100043.06;5058214;28;45559;-68
2022/04/21 16:10:22;;;;;;;;;4.33;4.33;;;;;22.82;29.76;100038.50;5062791;27;45520;-69
2022/04/21 16:12:49;;;;;;;;;6.67;6.00;;;;;22.77;29.96;100035.25;5058442;27;45472;-69
2022/04/21 16:15:15;;;;;;;;;5.67;4.67;;;;;22.62;29.83;100023.69;5058955;27;45430;-69
2022/04/21 16:17:45;;;;;;;;;3.33;3.33;;;;;22.64;30.48;100027.13;5059709;28;45831;-70
2022/04/21 16:20:16;;;;;;;;;3.00;3.00;;;;;22.76;29.84;100042.41;5057085;28;45350;-68
2022/04/21 16:22:43;;;;;;;;;6.00;4.00;;;;;22.60;30.40;100031.78;5056219;28;45759;-70
2022/04/21 16:25:21;;;;;;;;;4.33;4.33;;;;;22.69;29.91;100050.88;5032057;28;45664;-71
2022/04/21 16:27:48;;;;;;;;;3.00;3.00;;;;;22.55;30.16;100031.19;5057028;28;46430;-71
2022/04/21 16:30:14;;;;;;;;;3.67;3.67;;;;;22.54;29.79;100040.16;5055770;28;45421;-69
2022/04/21 16:32:39;;;;;;;;;4.67;4.67;;;;;22.52;30.58;100047.41;5058691;28;45326;-71
2022/04/21 16:35:05;;;;;;;;;4.67;4.67;;;;;22.42;29.80;100046.19;5058636;28;45581;-75
2022/04/21 16:37:32;;;;;;;;;3.00;2.00;;;;;22.36;29.33;100050.09;5057057;28;45312;-71
2022/04/21 16:39:58;;;;;;;;;7.33;4.00;;;;;22.15;29.65;100036.13;5037444;28;46609;-72
2022/04/21 16:42:23;;;;;;;;;3.67;3.00;;;;;22.02;29.92;100051.13;5061471;28;45580;-74
2022/04/21 16:44:49;;;;;;;;;4.00;4.00;;;;;21.67;30.14;100023.78;5056335;28;46035;-72
2022/04/21 16:47:14;;;;;;;;;3.00;3.00;;;;;21.67;30.45;100039.78;5052994;28;45403;-70
2022/04/21 16:49:40;;;;;;;;;3.33;3.33;;;;;21.38;30.66;100018.22;5056768;28;45492;-70
2022/04/21 16:52:07;;;;;;;;;4.00;4.00;;;;;21.50;31.08;100048.69;5057089;28;45451;-70
2022/04/21 16:54:33;;;;;;;;;4.00;4.00;;;;;21.43;31.38;100056.16;5053258;28;46664;-70
2022/04/21 16:56:58;;;;;;;;;4.00;4.00;;;;;21.22;31.13;100038.63;5053709;28;45444;-70
2022/04/21 16:59:24;;;;;;;;;4.67;4.00;;;;;21.11;31.56;100032.03;5056848;28;46406;-70
2022/04/21 17:04:34;;;;;;;;;6.00;4.67;;;;;20.87;31.48;100025.34;5053391;28;45706;-73
2022/04/21 17:06:59;;;;;;;;;5.00;5.00;;;;;20.81;31.61;100023.00;5053997;28;46477;-71
2022/04/21 17:09:25;;;;;;;;;6.00;4.00;;;;;20.83;31.87;100035.28;5055844;28;45561;-72
2022/04/21 17:11:50;;;;;;;;;5.00;4.00;;;;;20.89;32.04;100052.75;5055552;28;45299;-71
2022/04/21 17:14:16;;;;;;;;;4.00;4.00;;;;;20.84;31.75;100036.16;5056244;28;45456;-72
2022/04/21 17:16:44;;;;;;;;;3.00;3.00;;;;;20.79;31.79;100033.75;5055036;28;45513;-72
2022/04/21 17:19:09;;;;;;;;;3.00;3.00;;;;;20.84;32.00;100045.00;5037891;28;45880;-73
2022/04/21 17:21:35;;;;;;;;;3.33;3.00;;;;;20.80;32.24;100047.91;5056917;28;45505;-72
2022/04/21 17:24:01;;;;;;;;;2.33;2.33;;;;;20.84;32.26;100053.00;5051420;28;46262;-73
2022/04/21 17:26:27;;;;;;;;;3.00;2.67;;;;;20.86;32.14;100051.13;5056226;28;45529;-71
2022/04/21 17:28:52;;;;;;;;;3.67;3.67;;;;;20.85;32.31;100048.53;5053487;28;45445;-74
2022/04/21 17:31:18;;;;;;;;;3.33;3.00;;;;;20.85;31.97;100040.53;5055751;28;45482;-73
2022/04/21 17:33:43;;;;;;;;;3.00;3.00;;;;;20.90;32.06;100046.47;5055839;28;46181;-73
2022/04/21 17:36:09;;;;;;;;;4.00;4.00;;;;;20.81;32.56;100053.16;5053471;28;45278;-72
2022/04/21 17:38:43;;;;;;;;;3.67;3.33;;;;;20.72;32.86;100054.47;5054945;28;45528;-71
2022/04/21 17:41:09;;;;;;;;;3.00;3.00;;;;;20.71;32.67;100049.22;5037853;28;45787;-71
2022/04/21 17:43:34;;;;;;;;;3.00;3.00;;;;;20.70;32.57;100047.50;5056683;28;45577;-71
2022/04/21 17:46:00;;;;;;;;;2.67;2.00;;;;;20.53;32.41;100037.69;5055645;28;45189;-72
2022/04/21 17:48:26;;;;;;;;;5.00;5.00;;;;;20.40;32.63;100025.94;5056027;28;45398;-70
2022/04/21 17:50:52;;;;;;;;;4.00;4.00;;;;;20.49;32.66;100046.75;5037028;28;45520;-70
2022/04/21 17:53:18;;;;;;;;;4.00;4.00;;;;;20.53;32.86;100062.50;5083359;27;46450;-72
2022/04/21 17:55:43;;;;;;;;;4.00;4.00;;;;;20.28;32.75;100027.41;5076866;28;45472;-71
2022/04/21 17:58:09;;;;;;;;;3.33;3.33;;;;;20.26;32.91;100022.19;5076418;28;45439;-70
2022/04/21 18:00:41;;;;;;;;;5.00;3.67;;;;;20.30;33.26;100039.69;5075784;27;45714;-70
2022/04/21 18:03:08;;;;;;;;;5.00;4.00;;;;;20.27;33.19;100042.50;5076046;27;45453;-69
2022/04/21 18:05:34;;;;;;;;;3.00;3.00;;;;;20.27;33.28;100046.97;5077162;27;45527;-72
2022/04/21 18:07:59;;;;;;;;;3.33;3.00;;;;;20.30;33.25;100046.81;5075341;27;45481;-71
2022/04/21 18:10:25;;;;;;;;;4.00;3.33;;;;;20.25;33.10;100041.72;5080612;27;45479;-70
2022/04/21 18:12:51;;;;;;;;;3.33;3.00;;;;;20.30;33.38;100055.66;5080040;27;46816;-71
2022/04/21 18:15:17;;;;;;;;;6.33;4.00;;;;;20.29;33.43;100053.06;5074881;27;45298;-69
2022/04/21 18:17:43;;;;;;;;;4.00;4.00;;;;;20.25;33.33;100063.00;5076067;27;45499;-73
2022/04/21 18:20:12;;;;;;;;;3.67;3.67;;;;;20.19;33.59;100052.63;5075533;27;45579;-71
2022/04/21 18:22:38;;;;;;;;;6.67;5.00;;;;;20.02;33.66;100041.97;5075038;27;45668;-72
2022/04/21 18:25:05;;;;;;;;;4.00;4.00;;;;;19.89;33.54;100021.31;5075845;27;45364;-72
2022/04/21 18:27:31;;;;;;;;;4.00;4.00;;;;;20.03;33.88;100054.34;5080353;27;45828;-73
2022/04/21 18:29:57;;;;;;;;;4.00;4.00;;;;;20.04;33.78;100048.94;5075374;27;45855;-73
2022/04/21 18:32:22;;;;;;;;;5.67;5.00;;;;;19.79;34.08;100014.72;5075882;27;45446;-72
2022/04/21 18:34:52;;;;;;;;;5.00;5.00;;;;;19.96;34.30;100050.25;5076187;27;45337;-71
2022/04/21 18:37:18;;;;;;;;;3.00;3.00;;;;;19.89;34.06;100042.56;5078919;27;45419;-72
2022/04/21 18:39:43;;;;;;;;;6.00;5.00;;;;;19.73;33.91;100014.13;5080379;27;46288;-72
2022/04/21 18:42:09;;;;;;;;;5.67;5.00;;;;;19.82;34.31;100038.47;5074755;27;46649;-70
2022/04/21 18:44:35;;;;;;;;;5.00;4.00;;;;;19.06;34.23;99913.63;5075335;28;45347;-70
2022/04/21 18:47:01;;;;;;;;;9.00;6.00;;;;;19.67;34.43;100012.59;5075241;27;45481;-70
2022/04/21 18:49:27;;;;;;;;;5.00;5.00;;;;;19.80;34.36;100040.34;5074034;28;45518;-75
2022/04/21 18:51:53;;;;;;;;;5.67;5.33;;;;;19.78;34.26;100026.25;5069451;27;46567;-74
2022/04/21 18:54:19;;;;;;;;;3.00;3.00;;;;;19.74;34.48;100027.31;5041429;28;45473;-72
2022/04/21 18:56:47;;;;;;;;;7.33;5.00;;;;;19.80;34.32;100050.97;5056790;28;45470;-72